Warning: file_get_contents(http://avwx.rest/api/metar/WMKK): failed to open stream: HTTP request failed! HTTP/1.1 500 INTERNAL SERVER ERROR in /var/www/metroair/shared/private/library/orig_library/lib_airport.php on line 361

MET994 - Hong Kong to Kuala Lumpur International Airport

Airbus A330-243
787MT
3 hrs 30 mins
1375 nm
Scheduled - M | TU | TH

Bid/PiRep Status

Bid was submitted on Jan 02 2017.

PiRep # 74577: Approved by Dave Nichols on January 3rd, 2017 5:15 UTC

Departure

Departing from
Hong Kong (HKG)
Departure gate
Terminal 1
Scheduled Departure
GMT 0330
Local 1130
METAR VHHH 230000Z 33010KT 2200 BR FEW006 SCT018 17/16 Q1017 NOSIG
TAF TAF VHHH 222300Z 2300/2406 36010KT 3500 BR FEW006 SCT020 TX17/2306Z TX15/2406Z TN13/2323Z TEMPO 2300/2303 30010KT 1500 BR -RA BECMG 2309/2311 7000 NSW
  • No charts available

Arrival

Arriving at
Kuala Lumpur International Airport (KUL)
Arrival gate
Unassigned
Scheduled Arrival
GMT 0700
Local 1500
METAR
TAF TAF WMKK 222300Z 2300/2406 01005KT 9999 FEW017CB SCT140 BKN280 TEMPO 2306/2310 4000 TSRA FEW015CB SCT018

Route Map

Planning Resources

PECA1A SIKOU A202 SAMAS G221 PCA TSN L637 BITOD IKUKO PULIP PULI1V
PECAN V10 ALLEY V31 SURFA V11 IDOSI A1 BUNTA G221 PCA W12 BMT W1 AC L644 CN L642 ENREP M763 TAXUL Y331 PIBOS
SANDI2A SANDI L642 ENREO M763 PIBOS PIBOSA
CH L642 VEPLI UGPEK VPK G584 VKL
PECAN1A PECAN V12 EPDOS L642 ENREP M763 TAXUL Y349 PULIP
Route:
OFP Layout:
Units:
Detailed Navlog:
ETOPS Planning:
Plan Stepclimbs:
Runway Analysis:
Include NOTAMS:
FIR NOTAMS:
Flight Maps:

Return Flights

MET995
Airbus A330-243
0830 GMT

Popularity

Hub Current Bids PiReps this month Total PiReps
KMCI 0 0 2
KLAX 0 0 3
KBOS 0 0 0